Time;durP1;ratioP1;P1;durP2;ratioP2;P2;SDS_P1;SDS_P2;PMS_P1;PMS_P2;Temp;Humidity;BMP_temperature;BMP_pressure;BME280_temperature;BME280_humidity;BME280_pressure;Samples;Min_cycle;Max_cycle;Signal;HPM_P1;HPM_P2
2022/01/03 00:00:11;;;;;;;20.25;12.82;;;;;;;6.03;77.05;99763.88;4454372;32;33798;-74
2022/01/03 00:02:40;;;;;;;23.87;13.50;;;;;;;6.58;75.04;99750.53;4454094;32;33625;-74
2022/01/03 00:05:08;;;;;;;20.48;12.57;;;;;;;6.49;74.75;99746.47;4454198;32;33961;-74
2022/01/03 00:07:38;;;;;;;22.75;13.05;;;;;;;6.27;75.50;99741.50;4452868;32;34212;-74
2022/01/03 00:10:08;;;;;;;21.23;12.55;;;;;;;6.60;74.09;99740.34;4452717;32;33959;-73
2022/01/03 00:12:37;;;;;;;20.62;12.73;;;;;;;6.65;73.72;99736.97;4454096;32;33055;-74
2022/01/03 00:15:09;;;;;;;19.62;12.02;;;;;;;6.43;73.67;99748.19;4453264;32;34048;-74
2022/01/03 00:17:37;;;;;;;22.35;12.45;;;;;;;6.35;74.12;99743.09;4440262;32;34442;-74
2022/01/03 00:20:06;;;;;;;19.80;12.50;;;;;;;6.32;74.28;99740.84;4454111;32;34464;-73
2022/01/03 00:22:54;;;;;;;24.05;12.75;;;;;;;6.68;72.80;99745.47;4440308;32;32890;-74
2022/01/03 00:25:23;;;;;;;18.60;11.68;;;;;;;6.85;72.31;99742.19;4440021;32;32371;-74
2022/01/03 00:28:01;;;;;;;20.70;11.70;;;;;;;6.79;72.37;99743.91;4452812;32;34140;-73
2022/01/03 00:30:30;;;;;;;22.37;12.02;;;;;;;7.14;71.00;99737.88;4452847;32;33902;-74
2022/01/03 00:32:57;;;;;;;20.65;12.30;;;;;;;6.81;71.74;99727.50;4454048;32;34345;-73
2022/01/03 00:35:25;;;;;;;19.90;11.95;;;;;;;7.01;71.61;99732.66;4452642;32;32982;-73
2022/01/03 00:37:53;;;;;;;19.08;12.45;;;;;;;6.78;72.30;99724.19;4439891;32;33481;-74
2022/01/03 00:40:21;;;;;;;18.37;11.73;;;;;;;6.53;73.32;99726.94;4452524;32;34648;-75
2022/01/03 00:42:49;;;;;;;17.70;11.77;;;;;;;6.48;73.94;99720.56;4452249;32;31929;-73
2022/01/03 00:45:16;;;;;;;16.95;11.30;;;;;;;6.50;73.97;99730.09;4453767;32;34021;-73
2022/01/03 00:47:47;;;;;;;19.77;12.45;;;;;;;6.47;74.16;99727.00;4452485;32;34196;-74
2022/01/03 00:50:17;;;;;;;24.05;12.95;;;;;;;6.77;73.25;99727.94;4452761;32;34644;-74
2022/01/03 00:52:45;;;;;;;21.00;13.27;;;;;;;6.51;74.72;99728.22;4452677;32;33491;-74
2022/01/03 00:55:13;;;;;;;21.62;12.55;;;;;;;6.32;75.13;99730.06;4453546;32;33805;-74
2022/01/03 00:57:40;;;;;;;21.23;12.52;;;;;;;5.94;76.36;99728.28;4452560;32;34038;-74
2022/01/03 01:00:09;;;;;;;22.33;13.30;;;;;;;6.22;76.49;99733.25;4452282;32;33210;-73
2022/01/03 01:02:38;;;;;;;20.70;13.15;;;;;;;6.07;76.98;99730.91;4439473;32;32909;-73
2022/01/03 01:05:07;;;;;;;19.83;12.23;;;;;;;6.24;77.28;99733.03;4452428;32;33936;-73
2022/01/03 01:07:34;;;;;;;17.95;11.55;;;;;;;6.41;76.74;99731.41;4453493;32;34181;-73
2022/01/03 01:10:04;;;;;;;16.92;11.18;;;;;;;6.46;75.86;99722.69;4453355;32;33711;-73
2022/01/03 01:12:33;;;;;;;19.17;11.70;;;;;;;6.63;74.97;99726.44;4451974;32;34270;-73
2022/01/03 01:15:01;;;;;;;21.23;12.20;;;;;;;6.30;75.73;99721.38;4452651;32;33806;-73
2022/01/03 01:17:29;;;;;;;21.25;12.48;;;;;;;5.86;77.33;99717.78;4453412;32;34044;-74
2022/01/03 01:19:56;;;;;;;16.67;10.77;;;;;;;6.37;74.91;99717.56;4452542;32;33932;-74
2022/01/03 01:22:24;;;;;;;19.80;12.40;;;;;;;6.73;73.11;99718.63;4454570;32;34163;-74
2022/01/03 01:27:47;;;;;;;18.98;11.20;;;;;;;6.35;74.08;99725.06;4455575;32;34280;-74
2022/01/03 01:30:19;;;;;;;19.10;11.93;;;;;;;6.23;74.23;99715.22;4455385;32;33942;-74
2022/01/03 01:32:55;;;;;;;17.75;11.12;;;;;;;6.06;74.61;99705.00;4454259;32;33419;-74
2022/01/03 01:35:23;;;;;;;20.17;12.05;;;;;;;6.40;73.02;99710.09;4454129;32;34142;-72
2022/01/03 01:37:53;;;;;;;18.35;11.00;;;;;;;5.66;75.28;99704.44;4454085;32;34954;-73
2022/01/03 01:40:22;;;;;;;15.40;10.63;;;;;;;5.84;74.02;99701.81;4454047;32;33813;-74
2022/01/03 01:42:49;;;;;;;19.42;10.95;;;;;;;6.62;71.17;99702.41;4455078;32;33245;-73
2022/01/03 01:45:21;;;;;;;17.48;10.65;;;;;;;6.04;72.56;99695.50;4454425;32;34208;-73
2022/01/03 01:47:49;;;;;;;16.70;10.90;;;;;;;6.44;70.74;99692.44;4441396;32;33457;-73
2022/01/03 01:50:16;;;;;;;18.52;11.98;;;;;;;6.06;71.57;99696.09;4454108;32;34387;-73
2022/01/03 01:52:46;;;;;;;18.35;11.55;;;;;;;6.58;70.05;99693.91;4455230;32;34441;-74
2022/01/03 01:55:14;;;;;;;18.08;11.38;;;;;;;6.25;70.99;99687.00;4455237;32;33946;-73
2022/01/03 01:57:58;;;;;;;19.12;11.65;;;;;;;5.91;73.15;99685.62;4454419;32;34143;-73
2022/01/03 02:00:26;;;;;;;20.15;12.10;;;;;;;5.82;74.38;99685.06;4459211;32;34471;-70
2022/01/03 02:02:54;;;;;;;18.00;11.38;;;;;;;5.78;74.94;99688.41;4470962;32;33130;-73
2022/01/03 02:05:30;;;;;;;19.52;11.70;;;;;;;5.46;76.12;99694.63;4470832;32;33929;-71
2022/01/03 02:08:06;;;;;;;18.85;11.43;;;;;;;5.68;75.78;99681.66;4468159;32;34203;-72
2022/01/03 02:11:02;;;;;;;18.10;11.35;;;;;;;5.86;75.14;99697.06;4453884;32;33904;-71
2022/01/03 02:13:30;;;;;;;17.45;10.95;;;;;;;5.92;74.46;99687.28;4440933;32;31893;-73
2022/01/03 02:16:03;;;;;;;17.67;10.02;;;;;;;6.30;72.80;99681.75;4453932;32;33788;-71
2022/01/03 02:18:32;;;;;;;16.30;10.00;;;;;;;5.80;74.49;99683.66;4454934;32;33697;-71
2022/01/03 02:21:02;;;;;;;16.12;9.70;;;;;;;5.73;74.91;99678.31;4453667;32;33817;-72
2022/01/03 02:23:30;;;;;;;15.05;9.45;;;;;;;6.07;73.60;99684.25;4453542;32;33394;-72
2022/01/03 02:25:58;;;;;;;18.00;9.90;;;;;;;6.33;72.73;99677.81;4454966;32;33515;-73
2022/01/03 02:28:26;;;;;;;14.25;8.73;;;;;;;6.42;72.70;99664.88;4452910;32;35010;-72
2022/01/03 02:30:54;;;;;;;14.02;9.30;;;;;;;6.75;71.47;99668.00;4451948;32;33774;-73
2022/01/03 02:33:22;;;;;;;14.60;8.85;;;;;;;6.60;72.18;99672.97;4454771;32;33768;-73
2022/01/03 02:35:49;;;;;;;13.60;7.80;;;;;;;6.52;72.95;99663.31;4453955;32;33816;-74
2022/01/03 02:38:18;;;;;;;11.95;7.07;;;;;;;6.00;75.70;99662.78;4441075;32;33578;-73
2022/01/03 02:40:46;;;;;;;10.70;6.22;;;;;;;6.64;74.49;99662.56;4453913;32;34010;-72
2022/01/03 02:43:14;;;;;;;9.63;6.47;;;;;;;6.54;75.61;99655.84;4454898;32;33460;-73
2022/01/03 02:45:42;;;;;;;8.80;5.75;;;;;;;6.75;74.83;99651.00;4452185;32;34790;-74
2022/01/03 02:48:12;;;;;;;8.65;5.00;;;;;;;6.95;74.48;99654.31;4454002;32;34808;-73
2022/01/03 02:50:40;;;;;;;9.07;5.55;;;;;;;7.13;73.02;99653.44;4453673;32;34434;-73
2022/01/03 02:53:08;;;;;;;8.98;5.62;;;;;;;7.08;72.65;99653.28;4454890;32;33450;-72
2022/01/03 02:55:36;;;;;;;9.45;5.78;;;;;;;7.59;71.22;99681.63;4454207;32;33946;-73
2022/01/03 02:58:07;;;;;;;9.50;5.85;;;;;;;7.74;70.36;99664.16;4454468;32;33791;-73
2022/01/03 03:00:45;;;;;;;8.48;5.78;;;;;;;6.77;74.10;99667.78;4454830;32;34405;-73
2022/01/03 03:03:14;;;;;;;9.70;6.65;;;;;;;7.05;72.84;99672.63;4453907;32;33682;-72
2022/01/03 03:05:42;;;;;;;8.80;6.25;;;;;;;7.48;71.23;99679.72;4454479;32;34635;-73
2022/01/03 03:08:11;;;;;;;10.18;6.30;;;;;;;7.64;70.52;99691.72;4453598;32;34812;-73
2022/01/03 03:10:39;;;;;;;11.48;6.60;;;;;;;7.60;69.95;99672.47;4454693;32;34529;-72
2022/01/03 03:13:07;;;;;;;9.80;6.50;;;;;;;7.62;70.39;99674.13;4466387;32;33347;-73
2022/01/03 03:15:34;;;;;;;13.38;7.90;;;;;;;7.35;71.03;99683.44;4453353;32;33992;-73
2022/01/03 03:18:02;;;;;;;12.37;7.50;;;;;;;7.67;69.74;99677.78;4440828;32;33537;-73
2022/01/03 03:20:32;;;;;;;14.68;8.80;;;;;;;7.73;69.12;99665.22;4454554;32;33933;-73
2022/01/03 03:23:00;;;;;;;13.52;8.05;;;;;;;7.25;71.42;99669.66;4453714;32;32843;-73
2022/01/03 03:25:33;;;;;;;12.95;7.90;;;;;;;7.78;69.67;99665.34;4453468;32;33811;-72
2022/01/03 03:28:04;;;;;;;10.98;7.40;;;;;;;7.98;68.55;99659.63;4453335;32;34238;-73
2022/01/03 03:30:43;;;;;;;10.40;6.93;;;;;;;8.04;68.71;99657.87;4453393;32;32718;-73
2022/01/03 03:33:14;;;;;;;11.18;6.37;;;;;;;8.16;67.99;99662.22;4440478;32;32878;-72
2022/01/03 03:35:42;;;;;;;11.10;6.72;;;;;;;8.08;68.23;99670.66;4453680;32;34582;-72
2022/01/03 03:38:11;;;;;;;10.68;6.60;;;;;;;7.97;68.65;99655.28;4453461;32;34891;-72
2022/01/03 03:40:39;;;;;;;8.57;5.43;;;;;;;8.13;68.20;99661.84;4453061;32;34601;-73
2022/01/03 03:43:06;;;;;;;9.50;6.10;;;;;;;8.09;68.45;99671.47;4453730;32;34238;-73
2022/01/03 03:45:34;;;;;;;10.80;6.32;;;;;;;8.48;67.18;99667.25;4453212;32;34160;-73
2022/01/03 03:48:05;;;;;;;10.20;6.37;;;;;;;8.15;68.51;99667.84;4453450;32;34356;-74
2022/01/03 03:50:33;;;;;;;12.40;6.90;;;;;;;8.39;67.38;99671.38;4454777;32;33758;-74
2022/01/03 03:53:01;;;;;;;11.30;6.72;;;;;;;8.09;67.60;99676.88;4453097;32;32450;-73
2022/01/03 03:55:28;;;;;;;12.80;7.15;;;;;;;7.67;69.08;99666.16;4453659;32;33681;-74
2022/01/03 03:57:56;;;;;;;12.07;7.35;;;;;;;8.37;66.75;99676.19;4452456;32;34402;-71
2022/01/03 04:00:24;;;;;;;12.73;6.87;;;;;;;7.84;67.73;99660.88;4454069;32;33905;-72
2022/01/03 04:02:53;;;;;;;12.57;7.40;;;;;;;8.32;66.04;99647.16;4469286;32;34190;-73
2022/01/03 04:05:21;;;;;;;11.48;6.50;;;;;;;8.33;66.82;99692.03;4468003;32;33645;-73
2022/01/03 04:07:49;;;;;;;10.95;6.28;;;;;;;7.93;67.63;99668.44;4468737;32;34654;-73
2022/01/03 04:10:18;;;;;;;12.52;7.10;;;;;;;8.02;67.85;99658.09;4468051;32;34397;-74
2022/01/03 04:12:46;;;;;;;11.60;7.60;;;;;;;8.30;67.52;99687.13;4468638;32;34767;-73
2022/01/03 04:15:14;;;;;;;12.27;7.50;;;;;;;8.40;66.86;99668.47;4468205;32;33668;-74
2022/01/03 04:17:42;;;;;;;10.73;7.43;;;;;;;8.51;66.61;99663.25;4469947;32;34257;-74
2022/01/03 04:20:10;;;;;;;12.60;6.95;;;;;;;8.73;66.19;99674.28;4468895;32;34693;-73
2022/01/03 04:22:37;;;;;;;13.25;7.78;;;;;;;8.67;66.15;99680.66;4454929;32;33445;-74
2022/01/03 04:25:06;;;;;;;12.27;7.20;;;;;;;8.31;67.36;99675.22;4459362;32;33894;-74
2022/01/03 04:27:33;;;;;;;11.65;7.18;;;;;;;8.50;66.73;99667.84;4469115;32;34311;-74
2022/01/03 04:30:02;;;;;;;11.27;7.32;;;;;;;8.57;66.59;99668.56;4468952;32;33725;-72
2022/01/03 04:32:30;;;;;;;11.02;7.10;;;;;;;8.73;66.43;99669.69;4454993;32;33351;-70
2022/01/03 04:34:57;;;;;;;11.50;7.20;;;;;;;8.94;65.63;99694.47;4458867;32;33485;-72
2022/01/03 04:37:25;;;;;;;12.18;6.93;;;;;;;9.01;65.13;99682.44;4457989;32;34112;-70
2022/01/03 04:39:53;;;;;;;12.07;7.28;;;;;;;9.14;64.88;99689.47;4459709;32;33666;-70
2022/01/03 04:42:21;;;;;;;11.93;7.55;;;;;;;8.88;65.44;99681.91;4459414;32;33737;-71
2022/01/03 04:44:48;;;;;;;12.65;8.00;;;;;;;9.60;62.95;99684.91;4460127;32;33928;-72
2022/01/03 04:47:17;;;;;;;9.90;6.93;;;;;;;8.73;65.28;99672.41;4459396;32;32661;-71
2022/01/03 04:49:47;;;;;;;13.05;7.72;;;;;;;8.99;65.24;99662.91;4459252;32;34585;-69
2022/01/03 04:52:15;;;;;;;10.60;7.18;;;;;;;8.70;66.18;99680.16;4459584;32;33365;-73
2022/01/03 04:54:44;;;;;;;13.32;7.95;;;;;;;8.66;65.98;99662.75;4455013;32;34588;-71
2022/01/03 04:57:11;;;;;;;11.45;7.25;;;;;;;8.80;65.43;99667.69;4453096;32;35065;-75
2022/01/03 04:59:40;;;;;;;12.02;7.55;;;;;;;8.88;65.51;99674.59;4441829;32;34963;-71
2022/01/03 05:02:07;;;;;;;12.00;7.43;;;;;;;8.92;65.17;99681.19;4455642;32;33571;-70
2022/01/03 05:04:35;;;;;;;13.48;7.28;;;;;;;9.02;64.56;99672.44;4454293;32;33860;-72
2022/01/03 05:07:03;;;;;;;10.93;7.18;;;;;;;8.85;65.31;99671.56;4455673;32;34477;-71
2022/01/03 05:09:31;;;;;;;12.02;8.05;;;;;;;8.80;65.47;99673.09;4455731;32;34610;-71
2022/01/03 05:11:58;;;;;;;15.40;8.45;;;;;;;8.77;65.52;99654.62;4455295;32;34248;-70
2022/01/03 05:14:27;;;;;;;12.98;8.00;;;;;;;8.69;65.67;99659.59;4454902;32;33574;-71
2022/01/03 05:16:57;;;;;;;11.80;7.15;;;;;;;8.95;64.89;99669.88;4462801;32;35039;-75
2022/01/03 05:19:25;;;;;;;10.77;7.28;;;;;;;9.18;64.26;99657.34;4469835;32;34677;-74
2022/01/03 05:21:53;;;;;;;11.02;7.18;;;;;;;8.49;66.11;99650.00;4470218;32;34232;-74
2022/01/03 05:24:21;;;;;;;12.90;7.50;;;;;;;9.08;64.33;99644.41;4471257;32;34656;-69
2022/01/03 05:26:49;;;;;;;11.00;6.75;;;;;;;8.85;65.04;99645.31;4470910;32;35032;-70
2022/01/03 05:29:17;;;;;;;10.20;6.47;;;;;;;9.03;64.47;99647.84;4471079;32;33922;-70
2022/01/03 05:31:48;;;;;;;12.18;7.57;;;;;;;9.32;63.66;99637.00;4471056;32;34278;-71
2022/01/03 05:34:15;;;;;;;12.10;8.00;;;;;;;8.94;65.05;99633.06;4470816;32;34029;-71
2022/01/03 05:36:43;;;;;;;11.70;7.15;;;;;;;9.10;64.89;99623.34;4470761;32;33840;-70
2022/01/03 05:39:10;;;;;;;11.98;7.30;;;;;;;9.04;64.95;99629.72;4470675;32;33994;-69
2022/01/03 05:41:38;;;;;;;15.40;8.75;;;;;;;9.22;64.23;99625.97;4470113;32;33266;-70
2022/01/03 05:44:08;;;;;;;13.15;8.20;;;;;;;9.26;64.53;99626.34;4471207;32;33864;-70
2022/01/03 05:46:36;;;;;;;14.02;8.00;;;;;;;9.26;64.25;99635.28;4471045;32;34174;-69
2022/01/03 05:49:06;;;;;;;13.02;7.87;;;;;;;9.20;64.37;99639.78;4470872;32;34584;-69
2022/01/03 05:51:34;;;;;;;13.43;7.20;;;;;;;9.65;63.11;99640.81;4471022;32;34500;-70
2022/01/03 05:54:01;;;;;;;13.13;7.22;;;;;;;9.42;63.75;99634.50;4469439;32;34497;-70
2022/01/03 05:56:29;;;;;;;10.13;6.75;;;;;;;9.21;64.37;99632.47;4470748;32;34791;-71
2022/01/03 05:58:57;;;;;;;11.30;7.03;;;;;;;9.21;64.79;99637.91;4469812;32;33205;-71
2022/01/03 06:01:25;;;;;;;11.88;7.53;;;;;;;9.16;64.90;99637.81;4469820;32;33752;-71
2022/01/03 06:04:00;;;;;;;11.15;6.90;;;;;;;9.01;65.52;99641.84;4470135;32;34055;-72
2022/01/03 06:09:16;;;;;;;12.32;7.10;;;;;;;9.41;64.35;99638.25;4470016;32;34615;-71
2022/01/03 06:11:44;;;;;;;10.30;6.72;;;;;;;9.37;64.63;99633.56;4470758;32;33501;-71
2022/01/03 06:14:15;;;;;;;8.85;6.30;;;;;;;8.81;66.91;99644.13;4470516;32;33858;-71
2022/01/03 06:16:44;;;;;;;9.77;6.20;;;;;;;9.25;65.52;99633.63;4470676;32;35136;-71
2022/01/03 06:19:14;;;;;;;12.00;6.68;;;;;;;9.33;64.72;99630.53;4470791;32;33715;-71
2022/01/03 06:21:42;;;;;;;11.43;6.12;;;;;;;9.27;65.12;99634.22;4470406;32;34374;-72
2022/01/03 06:24:12;;;;;;;11.82;6.87;;;;;;;9.09;65.65;99626.28;4470718;32;33742;-72
2022/01/03 06:26:41;;;;;;;10.65;6.45;;;;;;;9.33;64.44;99627.00;4470763;32;34221;-70
2022/01/03 06:29:09;;;;;;;12.68;6.95;;;;;;;9.53;64.14;99635.50;4470596;32;34628;-71
2022/01/03 06:31:38;;;;;;;11.07;6.43;;;;;;;9.67;63.05;99643.28;4470815;32;33985;-75
2022/01/03 06:34:06;;;;;;;13.52;6.87;;;;;;;9.50;63.94;99651.41;4470002;32;34563;-71
2022/01/03 06:36:34;;;;;;;11.27;7.07;;;;;;;9.34;64.70;99659.25;4470247;32;35083;-70
2022/01/03 06:39:03;;;;;;;10.60;6.97;;;;;;;9.30;65.15;99673.50;4470543;32;33991;-68
2022/01/03 06:41:31;;;;;;;11.82;7.50;;;;;;;9.46;64.68;99670.03;4470559;32;33243;-68
2022/01/03 06:43:59;;;;;;;12.13;6.95;;;;;;;9.32;65.22;99682.22;4470613;32;33799;-68
2022/01/03 06:46:27;;;;;;;13.62;7.47;;;;;;;9.45;64.71;99666.47;4470348;32;34264;-68
2022/01/03 06:48:54;;;;;;;12.82;7.30;;;;;;;9.38;64.84;99663.13;4469724;32;33646;-68
2022/01/03 06:51:23;;;;;;;12.45;7.65;;;;;;;9.34;64.84;99653.03;4470356;32;33505;-68
2022/01/03 06:53:52;;;;;;;12.55;7.72;;;;;;;9.37;64.65;99642.53;4470684;32;34681;-68
2022/01/03 06:56:20;;;;;;;12.70;7.85;;;;;;;9.40;64.73;99644.75;4470266;32;34811;-68
2022/01/03 06:58:47;;;;;;;11.90;7.25;;;;;;;9.58;63.31;99638.28;4470624;32;33993;-68
2022/01/03 07:01:15;;;;;;;11.10;6.53;;;;;;;9.20;65.25;99625.41;4470837;32;34304;-68
2022/01/03 07:03:43;;;;;;;8.85;5.32;;;;;;;9.48;63.92;99621.03;4470233;32;33869;-66
2022/01/03 07:06:10;;;;;;;10.27;6.28;;;;;;;9.68;63.17;99613.25;4468920;32;34254;-67
2022/01/03 07:08:38;;;;;;;9.60;5.90;;;;;;;9.67;63.22;99611.59;4469284;32;33921;-68
2022/01/03 07:11:06;;;;;;;8.52;5.45;;;;;;;9.47;63.93;99614.78;4484722;32;33430;-67
2022/01/03 07:13:42;;;;;;;7.87;4.85;;;;;;;9.31;64.30;99604.75;4484705;32;34795;-67
2022/01/03 07:18:56;;;;;;;6.47;3.85;;;;;;;10.11;62.12;99619.03;4452262;32;33680;-66
2022/01/03 07:21:24;;;;;;;5.05;3.40;;;;;;;10.11;61.94;99611.75;4452983;32;34120;-66
2022/01/03 07:23:52;;;;;;;4.00;2.20;;;;;;;10.34;61.34;99604.47;4451562;32;33941;-66
2022/01/03 07:26:20;;;;;;;2.70;1.60;;;;;;;10.65;61.01;99622.00;4453264;32;33826;-66
2022/01/03 07:28:47;;;;;;;2.78;1.40;;;;;;;10.59;61.42;99636.56;4453016;32;34704;-67
2022/01/03 07:31:15;;;;;;;1.65;1.15;;;;;;;11.01;59.07;99614.25;4452964;32;33299;-66
2022/01/03 07:33:43;;;;;;;2.53;1.17;;;;;;;11.31;58.07;99600.16;4453374;32;34894;-66
2022/01/03 07:36:11;;;;;;;2.47;1.15;;;;;;;11.45;58.58;99614.97;4452952;32;34774;-67
2022/01/03 07:38:38;;;;;;;1.48;1.00;;;;;;;11.85;55.39;99604.69;4452355;32;34441;-66
2022/01/03 07:41:08;;;;;;;3.00;1.12;;;;;;;11.76;55.87;99615.22;4453092;32;33516;-66
2022/01/03 07:43:35;;;;;;;2.10;1.10;;;;;;;12.21;54.56;99597.63;4451808;32;33613;-66
2022/01/03 07:46:04;;;;;;;7.15;2.35;;;;;;;11.99;53.61;99613.28;4451248;32;35003;-67
2022/01/03 07:48:31;;;;;;;5.25;2.60;;;;;;;12.26;53.06;99605.81;4452378;32;34066;-66
2022/01/03 07:50:59;;;;;;;7.82;2.85;;;;;;;12.38;51.75;99600.16;4452833;32;33225;-66
2022/01/03 07:53:27;;;;;;;5.10;2.50;;;;;;;12.35;53.00;99621.63;4452393;32;34189;-66
2022/01/03 07:55:55;;;;;;;4.28;1.60;;;;;;;12.60;51.80;99621.75;4452976;32;34946;-66
2022/01/03 07:58:23;;;;;;;3.40;1.40;;;;;;;12.72;51.14;99635.13;4452729;32;33975;-66
2022/01/03 08:00:50;;;;;;;3.53;1.52;;;;;;;12.59;50.12;99635.63;4452702;32;33627;-66
2022/01/03 08:03:19;;;;;;;4.35;1.48;;;;;;;12.52;51.77;99647.56;4452820;32;34776;-66
2022/01/03 08:06:05;;;;;;;3.15;1.65;;;;;;;12.78;49.37;99634.09;4452507;32;34028;-67
2022/01/03 08:08:32;;;;;;;2.67;1.45;;;;;;;13.01;50.45;99642.91;4452194;32;34677;-66
2022/01/03 08:11:00;;;;;;;2.28;1.50;;;;;;;13.00;49.90;99657.59;4452663;32;33379;-66
2022/01/03 08:13:27;;;;;;;2.53;1.40;;;;;;;13.02;50.01;99664.38;4452578;32;35035;-66
2022/01/03 08:15:55;;;;;;;1.50;1.15;;;;;;;12.83;50.14;99638.72;4452627;32;33731;-66
2022/01/03 08:18:22;;;;;;;2.00;1.10;;;;;;;12.86;49.53;99657.28;4452608;32;34698;-66
2022/01/03 08:20:52;;;;;;;2.60;1.02;;;;;;;13.09;49.46;99664.97;4452857;32;34109;-66
2022/01/03 08:23:20;;;;;;;3.00;1.23;;;;;;;12.87;49.99;99669.78;4452274;32;33753;-66
2022/01/03 08:25:47;;;;;;;2.22;1.30;;;;;;;12.88;50.15;99661.34;4452531;32;33952;-67
2022/01/03 08:28:15;;;;;;;4.37;1.60;;;;;;;13.30;49.00;99671.34;4452397;32;33702;-67
2022/01/03 08:30:42;;;;;;;3.30;1.27;;;;;;;13.23;49.41;99670.72;4452383;32;33719;-67
2022/01/03 08:33:10;;;;;;;2.30;1.40;;;;;;;13.29;49.41;99677.06;4468223;32;34005;-66
2022/01/03 08:35:37;;;;;;;2.12;1.00;;;;;;;13.37;48.83;99665.63;4468140;32;34851;-67
2022/01/03 08:38:05;;;;;;;1.80;1.02;;;;;;;13.20;50.38;99665.84;4465030;32;80372;-67
2022/01/03 08:40:32;;;;;;;1.52;0.90;;;;;;;13.03;49.99;99674.22;4467954;32;33104;-66
2022/01/03 08:43:00;;;;;;;1.52;0.90;;;;;;;13.03;50.53;99671.50;4468397;32;34620;-67
2022/01/03 08:45:27;;;;;;;4.25;0.98;;;;;;;13.33;50.33;99668.06;4468096;32;35082;-67
2022/01/03 08:47:55;;;;;;;1.87;1.10;;;;;;;13.17;50.11;99673.72;4467738;32;33916;-67
2022/01/03 08:50:22;;;;;;;1.55;0.95;;;;;;;13.28;49.63;99691.72;4468122;32;33307;-67
2022/01/03 08:52:50;;;;;;;1.85;0.93;;;;;;;13.59;48.37;99686.41;4481140;32;34172;-67
2022/01/03 08:55:19;;;;;;;3.08;1.20;;;;;;;12.93;50.89;99696.75;4483300;32;34701;-66
2022/01/03 08:57:51;;;;;;;3.08;1.10;;;;;;;13.05;50.18;99691.13;4483635;32;33907;-67
2022/01/03 09:00:19;;;;;;;2.37;1.10;;;;;;;13.11;50.92;99700.12;4484378;32;33541;-69
2022/01/03 09:02:47;;;;;;;2.50;1.40;;;;;;;12.67;51.96;99698.53;4484634;32;33676;-67
2022/01/03 09:05:14;;;;;;;4.80;1.45;;;;;;;13.17;51.26;99701.75;4470550;32;34314;-66
2022/01/03 09:07:42;;;;;;;2.95;1.67;;;;;;;13.14;51.89;99696.87;4484441;32;33724;-66
2022/01/03 09:10:11;;;;;;;5.78;1.80;;;;;;;13.11;51.56;99700.12;4484478;32;34150;-66
2022/01/03 09:12:39;;;;;;;2.65;1.15;;;;;;;13.13;51.72;99692.50;4484376;32;34025;-65
2022/01/03 09:15:07;;;;;;;4.20;1.33;;;;;;;12.73;52.54;99691.25;4480509;32;34253;-67
2022/01/03 09:17:34;;;;;;;2.90;1.60;;;;;;;13.02;51.54;99720.78;4468556;32;34089;-65
2022/01/03 09:20:02;;;;;;;2.33;1.05;;;;;;;12.60;51.79;99708.03;4468682;32;34155;-66
2022/01/03 09:22:35;;;;;;;3.10;1.25;;;;;;;12.64;51.75;99717.31;4468325;32;33832;-66
2022/01/03 09:30:16;;;;;;;1.42;1.08;;;;;;;12.00;53.05;99704.63;4481949;32;34280;-67
2022/01/03 09:32:44;;;;;;;1.48;1.00;;;;;;;12.69;51.44;99704.53;4483858;32;34808;-67
2022/01/03 09:35:11;;;;;;;1.08;0.90;;;;;;;12.64;51.51;99677.31;4483944;32;34099;-66
2022/01/03 09:37:40;;;;;;;2.83;0.95;;;;;;;12.52;51.92;99691.09;4484461;32;34039;-66
2022/01/03 09:40:08;;;;;;;1.42;0.85;;;;;;;12.20;52.46;99672.16;4483703;32;34292;-64
2022/01/03 09:42:36;;;;;;;2.78;1.10;;;;;;;12.32;52.58;99680.13;4486142;32;33930;-67
2022/01/03 09:45:06;;;;;;;1.10;0.80;;;;;;;12.10;52.47;99672.06;4471867;32;34264;-65
2022/01/03 09:47:38;;;;;;;1.95;0.80;;;;;;;12.32;52.82;99659.16;4477587;32;33994;-69
2022/01/03 09:50:06;;;;;;;1.23;1.10;;;;;;;12.48;52.19;99676.41;4470415;32;33101;-68
2022/01/03 09:52:34;;;;;;;1.12;0.93;;;;;;;12.76;51.66;99657.22;4456739;32;34535;-67
2022/01/03 09:55:02;;;;;;;1.67;0.80;;;;;;;12.57;52.31;99668.56;4456856;32;33916;-68
2022/01/03 09:57:30;;;;;;;2.87;0.95;;;;;;;12.44;52.06;99675.31;4470308;32;34418;-68
2022/01/03 10:00:02;;;;;;;3.78;1.10;;;;;;;12.64;51.11;99671.88;4471844;32;33316;-67
2022/01/03 10:02:31;;;;;;;3.80;1.55;;;;;;;12.89;50.75;99662.16;4486021;32;34605;-67
2022/01/03 10:04:59;;;;;;;2.30;1.12;;;;;;;13.06;50.38;99670.12;4472341;32;34005;-69
2022/01/03 10:07:27;;;;;;;2.00;1.00;;;;;;;12.76;51.23;99657.22;4486075;32;34906;-67
2022/01/03 10:09:54;;;;;;;1.08;0.88;;;;;;;13.04;50.67;99661.41;4471729;32;34085;-67
2022/01/03 10:12:22;;;;;;;1.23;0.90;;;;;;;12.93;50.25;99655.91;4486083;32;34859;-68
2022/01/03 10:14:50;;;;;;;1.70;0.93;;;;;;;13.20;50.06;99654.94;4485450;32;34859;-69
2022/01/03 10:17:17;;;;;;;2.83;1.40;;;;;;;13.04;50.04;99658.69;4486177;32;33983;-69
2022/01/03 10:20:00;;;;;;;8.75;6.87;;;;;;;12.67;52.24;99652.28;4486306;32;33440;-69
2022/01/03 10:22:30;;;;;;;2.85;2.00;;;;;;;12.96;50.83;99640.13;4486133;32;34767;-68
2022/01/03 10:25:00;;;;;;;3.55;1.67;;;;;;;13.06;50.89;99648.34;4486270;32;34194;-72
2022/01/03 10:27:50;;;;;;;1.70;1.08;;;;;;;12.58;52.17;99626.66;4483778;32;33640;-69
2022/01/03 10:30:43;;;;;;;2.20;1.40;;;;;;;12.68;51.24;99623.97;4472053;32;33338;-71
2022/01/03 10:33:18;;;;;;;2.47;1.80;;;;;;;12.56;51.73;99606.25;4471832;32;34007;-70
2022/01/03 10:35:47;;;;;;;2.37;1.70;;;;;;;12.71;51.80;99603.56;4472194;32;34993;-70
2022/01/03 10:38:33;;;;;;;2.92;1.50;;;;;;;12.94;50.95;99596.84;4485895;32;33788;-71
2022/01/03 10:41:22;;;;;;;3.67;2.00;;;;;;;12.65;51.46;99604.63;4486061;32;34314;-67
2022/01/03 10:43:52;;;;;;;2.70;1.75;;;;;;;12.36;52.83;99610.50;4486360;32;33529;-72
2022/01/03 10:46:26;;;;;;;2.10;1.30;;;;;;;12.28;53.61;99606.34;4486136;32;34200;-69
2022/01/03 10:49:10;;;;;;;2.50;1.30;;;;;;;12.02;54.70;99610.00;4471489;32;32587;-70
2022/01/03 10:51:38;;;;;;;1.60;1.17;;;;;;;12.52;53.54;99616.81;4486172;32;33598;-69
2022/01/03 10:54:11;;;;;;;2.90;1.52;;;;;;;13.13;50.93;99616.22;4486118;32;33997;-69
2022/01/03 10:56:41;;;;;;;3.75;2.40;;;;;;;13.05;51.91;99614.03;4486036;32;35049;-70
2022/01/03 10:59:14;;;;;;;3.62;2.60;;;;;;;13.04;52.40;99620.56;4472225;32;34041;-71
2022/01/03 11:01:47;;;;;;;2.08;1.70;;;;;;;13.03;51.89;99627.09;4485920;32;34121;-70
2022/01/03 11:04:49;;;;;;;2.28;1.40;;;;;;;13.45;50.67;99615.22;4472118;32;34013;-68
2022/01/03 11:13:02;;;;;;;;;;;;;;;13.43;51.39;99592.88;4485664;32;33878;-69
2022/01/03 11:15:30;;;;;;;3.40;1.37;;;;;;;13.71;50.16;99594.22;4486071;32;34272;-68
2022/01/03 11:18:19;;;;;;;9.23;5.20;;;;;;;13.91;50.17;99596.97;4471328;32;34041;-68
2022/01/03 11:21:09;;;;;;;5.07;2.60;;;;;;;13.71;50.84;99596.97;4485411;32;34689;-68
2022/01/03 11:23:37;;;;;;;2.20;1.55;;;;;;;13.87;49.88;99597.78;4471641;32;34237;-68
2022/01/03 11:26:11;;;;;;;2.92;1.50;;;;;;;14.06;49.25;99598.00;4471560;32;33817;-68
2022/01/03 11:28:40;;;;;;;4.30;1.90;;;;;;;13.84;49.77;99612.75;4471583;32;34194;-67
2022/01/03 11:31:08;;;;;;;4.22;2.30;;;;;;;14.22;48.92;99613.28;4471372;32;33902;-68
2022/01/03 11:33:37;;;;;;;3.55;1.62;;;;;;;14.09;48.82;99608.41;4471415;32;33531;-68
2022/01/03 11:36:26;;;;;;;5.68;4.15;;;;;;;13.56;49.35;99595.06;4471127;32;33190;-68
2022/01/03 11:39:03;;;;;;;5.50;2.55;;;;;;;13.54;50.26;99598.06;4485531;32;35070;-68
2022/01/03 11:41:31;;;;;;;3.12;1.45;;;;;;;13.65;49.89;99592.59;4485318;32;34541;-67
2022/01/03 11:43:58;;;;;;;2.92;1.73;;;;;;;13.43;50.27;99592.88;4485609;32;33355;-69
2022/01/03 11:46:26;;;;;;;8.52;6.95;;;;;;;13.40;50.17;99594.22;4485603;32;34596;-71
2022/01/03 11:48:54;;;;;;;5.93;2.53;;;;;;;13.79;49.00;99592.88;4471418;32;34159;-69
2022/01/03 11:51:22;;;;;;;3.45;2.10;;;;;;;13.29;50.50;99606.22;4485276;32;33951;-69
2022/01/03 11:53:50;;;;;;;2.70;1.45;;;;;;;13.10;50.47;99614.84;4471633;32;33509;-68
2022/01/03 11:56:22;;;;;;;1.58;1.10;;;;;;;13.50;49.08;99601.62;4471072;32;33878;-68
2022/01/03 11:59:17;;;;;;;2.03;1.00;;;;;;;12.92;49.88;99610.72;4471540;32;35107;-67
2022/01/03 12:04:58;;;;;;;1.58;0.90;;;;;;;12.95;50.71;99630.34;4473185;32;34245;-68